Terminal Aerodrome Forecast
Issued by NWS

Home | Current Version | Previous Version | Text Only | Print | Product List | Glossary On
Versions: 1 2 3 4 5 6 7 8 9 10 11 12 13
000
FTUS42 TJSJ 211700
TAFISX
TAF
TISX 211724Z 2118/2218 06013KT P6SM VCSH SCT025
     FM212130 06010KT P6SM FEW030
     FM221300 09013KT P6SM VCSH SCT030=

USA.gov is the U.S. government's official web portal to all federal, state and local government web resources and services.